createdAt,value
2022-12-03T00:04:21.993Z,100812.50
2022-12-03T00:11:07.631Z,100810.75
2022-12-03T00:17:53.335Z,100824.75
2022-12-03T00:24:41.392Z,100800.16
2022-12-03T00:31:27.199Z,100814.38
2022-12-03T00:38:12.588Z,100813.19
2022-12-03T00:45:00.936Z,100812.91
2022-12-03T00:51:46.416Z,100818.66
2022-12-03T00:58:31.832Z,100812.34
2022-12-03T01:05:20.140Z,100794.78
2022-12-03T01:12:06.031Z,100824.81
2022-12-03T01:18:52.492Z,100806.22
2022-12-03T01:25:40.590Z,100816.44
2022-12-03T01:32:26.001Z,100834.84
2022-12-03T01:39:11.758Z,100812.47
2022-12-03T01:45:59.988Z,100831.16
2022-12-03T01:52:46.278Z,100810.50
2022-12-03T01:59:38.510Z,100819.69
2022-12-03T02:06:29.817Z,100835.31
2022-12-03T02:13:15.291Z,100841.06
2022-12-03T02:20:01.810Z,100828.44
2022-12-03T02:26:49.972Z,100816.09
2022-12-03T02:33:35.781Z,100837.44
2022-12-03T02:40:24.539Z,100824.03
2022-12-03T02:47:13.200Z,100817.69
2022-12-03T02:54:00.713Z,100819.94
2022-12-03T03:00:47.676Z,100815.94
2022-12-03T03:07:35.811Z,100833.13
2022-12-03T03:14:21.311Z,100820.06
2022-12-03T03:21:08.271Z,100831.31
2022-12-03T03:27:56.129Z,100824.47
2022-12-03T03:34:41.569Z,100818.22
2022-12-03T03:41:29.424Z,100822.28
2022-12-03T04:02:06.084Z,100790.31
2022-12-03T04:08:51.459Z,100802.31
2022-12-03T04:15:36.995Z,100779.34
2022-12-03T04:22:37.612Z,100787.81
2022-12-03T04:29:23.814Z,100788.75
2022-12-03T04:36:09.674Z,100781.91
2022-12-03T04:42:57.963Z,100776.75
2022-12-03T04:49:45.208Z,100793.19
2022-12-03T04:56:30.861Z,100803.56
2022-12-03T05:07:12.088Z,100755.56
2022-12-03T05:13:57.537Z,100781.00
2022-12-03T05:20:51.493Z,100768.75
2022-12-03T05:27:41.144Z,100771.78
2022-12-03T05:34:26.572Z,100793.97
2022-12-03T05:41:24.268Z,100777.38
2022-12-03T05:48:14.445Z,100774.31
2022-12-03T05:54:59.844Z,100774.75
2022-12-03T06:01:47.391Z,100772.53
2022-12-03T06:08:35.485Z,100773.59
2022-12-03T06:15:22.135Z,100771.69
2022-12-03T06:22:07.722Z,100776.94
2022-12-03T06:28:56.116Z,100765.16
2022-12-03T06:35:41.649Z,100759.97
2022-12-03T06:42:27.107Z,100776.31
2022-12-03T06:49:15.342Z,100759.09
2022-12-03T06:56:01.146Z,100786.66
2022-12-03T07:02:47.161Z,100775.13
2022-12-03T07:09:35.186Z,100780.31
2022-12-03T07:16:20.812Z,100771.25
2022-12-03T07:23:06.515Z,100778.53
2022-12-03T07:29:54.645Z,100788.03
2022-12-03T07:36:40.091Z,100788.91
2022-12-03T07:43:25.855Z,100778.25
2022-12-03T07:50:15.348Z,100778.03
2022-12-03T07:57:01.842Z,100793.69
2022-12-03T08:03:47.746Z,100789.41
2022-12-03T08:10:35.886Z,100779.69
2022-12-03T08:17:21.708Z,100781.13
2022-12-03T08:24:17.975Z,100767.13
2022-12-03T08:31:19.988Z,100757.53
2022-12-03T08:38:14.404Z,100779.22
2022-12-03T08:45:21.074Z,100785.31
2022-12-03T08:52:18.084Z,100784.22
2022-12-03T08:59:16.725Z,100774.75
2022-12-03T09:06:02.128Z,100780.28
2022-12-03T09:12:51.390Z,100764.03
2022-12-03T09:19:40.057Z,100767.81
2022-12-03T09:26:29.165Z,100772.06
2022-12-03T09:33:17.187Z,100765.78
2022-12-03T09:40:02.877Z,100753.56
2022-12-03T09:46:50.051Z,100750.59
2022-12-03T09:53:41.218Z,100744.84
2022-12-03T10:00:30.142Z,100746.50
2022-12-03T10:07:15.538Z,100735.78
2022-12-03T10:14:03.935Z,100731.19
2022-12-03T10:20:49.604Z,100736.69
2022-12-03T10:27:35.020Z,100732.31
2022-12-03T10:34:30.638Z,100707.78
2022-12-03T10:41:28.320Z,100722.81
2022-12-03T10:48:20.236Z,100696.31
2022-12-03T10:55:13.214Z,100687.88
2022-12-03T11:01:59.000Z,100696.34
2022-12-03T11:08:53.020Z,100649.63
2022-12-03T11:15:49.059Z,100674.78
2022-12-03T11:22:47.102Z,100671.78
2022-12-03T11:29:58.793Z,100655.13
2022-12-03T11:37:31.270Z,100640.94
2022-12-03T11:44:34.589Z,100623.16
2022-12-03T11:51:23.158Z,100644.41
2022-12-03T11:58:27.990Z,100643.56
2022-12-03T12:05:23.486Z,100633.75
2022-12-03T12:12:23.335Z,100613.03
2022-12-03T12:19:35.572Z,100606.78
2022-12-03T12:26:20.996Z,100574.84
2022-12-03T12:33:19.952Z,100587.41
2022-12-03T12:40:17.703Z,100587.16
2022-12-03T12:47:10.949Z,100560.13
2022-12-03T12:53:56.516Z,100594.50
2022-12-03T13:00:44.928Z,100545.31
2022-12-03T13:07:30.570Z,100571.50
2022-12-03T13:14:22.193Z,100552.56
2022-12-03T13:21:25.079Z,100601.69
2022-12-03T13:28:11.577Z,100586.19
2022-12-03T13:35:00.572Z,100590.53
2022-12-03T13:42:02.066Z,100570.88
2022-12-03T13:48:47.776Z,100585.06
2022-12-03T13:55:34.745Z,100584.50
2022-12-03T14:02:22.608Z,100583.50
2022-12-03T14:09:08.494Z,100592.97
2022-12-03T14:15:53.932Z,100592.25
2022-12-03T14:22:41.983Z,100569.91
2022-12-03T14:29:27.598Z,100575.16
2022-12-03T14:36:13.613Z,100558.50
2022-12-03T14:43:02.043Z,100562.63
2022-12-03T14:49:47.955Z,100567.00
2022-12-03T14:56:33.438Z,100586.91
2022-12-03T15:03:21.424Z,100561.78
2022-12-03T15:10:09.981Z,100585.56
2022-12-03T15:16:55.544Z,100578.22
2022-12-03T15:23:43.583Z,100533.75
2022-12-03T15:30:29.219Z,100594.31
2022-12-03T15:37:14.983Z,100572.50
2022-12-03T15:44:04.922Z,100578.78
2022-12-03T15:50:50.299Z,100582.59
2022-12-03T15:57:35.836Z,100575.50
2022-12-03T16:04:23.856Z,100573.84
2022-12-03T16:11:09.608Z,100590.22
2022-12-03T16:17:55.040Z,100577.16
2022-12-03T16:24:43.120Z,100568.69
2022-12-03T16:31:28.638Z,100566.50
2022-12-03T16:38:14.427Z,100579.31
2022-12-03T16:45:26.616Z,100568.13
2022-12-03T16:52:12.058Z,100557.75
2022-12-03T16:58:57.400Z,100554.19
2022-12-03T17:05:45.437Z,100563.75
2022-12-03T17:12:54.217Z,100556.91
2022-12-03T17:19:37.041Z,100552.00
2022-12-03T17:26:25.135Z,100545.47
2022-12-03T17:33:10.632Z,100526.63
2022-12-03T17:39:56.685Z,100544.66
2022-12-03T17:46:45.016Z,100535.66
2022-12-03T17:53:30.550Z,100541.94
2022-12-03T18:00:17.352Z,100534.56
2022-12-03T18:07:05.424Z,100537.56
2022-12-03T18:13:50.850Z,100529.09
2022-12-03T18:20:36.312Z,100528.03
2022-12-03T18:27:24.983Z,100526.41
2022-12-03T18:34:10.362Z,100528.84
2022-12-03T18:40:59.263Z,100517.91
2022-12-03T18:47:47.907Z,100494.19
2022-12-03T18:54:33.418Z,100516.28
2022-12-03T19:01:22.437Z,100511.38
2022-12-03T19:08:14.876Z,100506.19
2022-12-03T19:15:00.719Z,100507.00
2022-12-03T19:21:50.773Z,100516.03
2022-12-03T19:28:38.906Z,100497.19
2022-12-03T19:35:24.312Z,100518.19
2022-12-03T19:42:10.064Z,100512.75
2022-12-03T19:48:58.632Z,100501.53
2022-12-03T19:55:43.971Z,100492.81
2022-12-03T20:02:29.505Z,100510.28
2022-12-03T20:09:20.744Z,100492.53
2022-12-03T20:16:08.793Z,100491.75
2022-12-03T20:22:54.359Z,100508.09
2022-12-03T20:29:42.338Z,100506.19
2022-12-03T20:36:29.615Z,100505.66
2022-12-03T20:43:15.000Z,100498.56
2022-12-03T20:50:03.041Z,100477.56
2022-12-03T20:56:48.489Z,100470.44
2022-12-03T21:03:33.956Z,100484.91
2022-12-03T21:10:34.701Z,100464.72
2022-12-03T21:17:20.589Z,100463.09
2022-12-03T21:24:10.217Z,100468.00
2022-12-03T21:31:02.149Z,100479.44
2022-12-03T21:37:47.760Z,100481.94
2022-12-03T21:44:35.026Z,100468.53
2022-12-03T21:51:23.323Z,100457.91
2022-12-03T21:58:08.761Z,100457.63
2022-12-03T22:04:54.467Z,100459.47
2022-12-03T22:11:42.557Z,100482.97
2022-12-03T22:18:28.043Z,100468.22
2022-12-03T22:25:13.568Z,100454.88
2022-12-03T22:32:01.942Z,100457.34
2022-12-03T22:38:47.416Z,100460.34
2022-12-03T22:45:32.856Z,100461.72
2022-12-03T22:52:20.917Z,100448.56
2022-12-03T22:59:06.388Z,100442.56
2022-12-03T23:05:51.824Z,100450.50
2022-12-03T23:12:40.431Z,100421.31
2022-12-03T23:19:25.953Z,100434.47
2022-12-03T23:26:14.565Z,100429.25
2022-12-03T23:33:02.645Z,100387.28
2022-12-03T23:39:49.925Z,100403.63
2022-12-03T23:46:35.379Z,100395.13
2022-12-03T23:53:23.498Z,100397.03
